| time (UTC) | temp C | wind direction | speed KPH | gust KPH | rain 1hr cm | rain 24hr cm | rain mn cm | humidity % | barometer mb |
| 20260507103049 | 19 | 38 | 1.6 | 8.0 | 0.00 | 0.05 | 0.03 | 56 | 1010.5 |
| 20260507101546 | 19 | 51 | 0.0 | 6.4 | 0.00 | 0.05 | 0.03 | 60 | 1010.7 |
| 20260507100040 | 19 | 82 | 0.0 | 9.7 | 0.00 | 0.05 | 0.03 | 60 | 1010.7 |
| 20260507094552 | 18 | 117 | 1.6 | 9.7 | 0.00 | 0.05 | 0.03 | 60 | 1010.7 |
| 20260507093037 | 18 | 140 | 6.4 | 11.3 | 0.00 | 0.05 | 0.03 | 64 | 1010.8 |
| 20260507091535 | 18 | 102 | 3.2 | 11.3 | 0.00 | 0.05 | 0.03 | 65 | 1010.9 |
| 20260507090031 | 18 | 81 | 4.8 | 11.3 | 0.00 | 0.05 | 0.03 | 64 | 1011.1 |
| 20260507084529 | 17 | 60 | 0.0 | 6.4 | 0.00 | 0.05 | 0.03 | 65 | 1011.2 |
| 20260507083027 | 17 | 44 | 1.6 | 6.4 | 0.00 | 0.05 | 0.03 | 65 | 1011.3 |
| 20260507081525 | 17 | 88 | 1.6 | 6.4 | 0.00 | 0.05 | 0.03 | 66 | 1011.4 |
| 20260507080021 | 17 | 88 | 1.6 | 9.7 | 0.00 | 0.05 | 0.03 | 70 | 1011.4 |
| 20260507074519 | 16 | 134 | 3.2 | 8.0 | 0.00 | 0.05 | 0.03 | 70 | 1011.5 |
| 20260507073016 | 16 | 104 | 3.2 | 6.4 | 0.00 | 0.05 | 0.03 | 72 | 1011.3 |
| 20260507071518 | 16 | 63 | 1.6 | 4.8 | 0.00 | 0.05 | 0.03 | 70 | 1011.4 |
| 20260507070018 | 15 | 56 | 0.0 | 4.8 | 0.00 | 0.05 | 0.03 | 75 | 1011.5 |
| 20260507064512 | 15 | 91 | 0.0 | 4.8 | 0.00 | 0.05 | 0.03 | 77 | 1011.4 |
| 20260507063004 | 14 | 96 | 0.0 | 3.2 | 0.00 | 0.05 | 0.03 | 80 | 1011.3 |
| 20260507061502 | 13 | 98 | 1.6 | 6.4 | 0.00 | 0.05 | 0.03 | 83 | 1011.4 |
| 20260507060101 | 13 | 52 | 3.2 | 4.8 | 0.00 | 0.05 | 0.03 | 83 | 1011.2 |
| 20260507054556 | 12 | 355 | 0.0 | 0.0 | 0.00 | 0.05 | 0.03 | 85 | 1011.2 |
| 20260507053118 | 12 | 355 | 0.0 | 1.6 | 0.00 | 0.05 | 0.03 | 86 | 1011.4 |
| 20260507051554 | 11 | 355 | 0.0 | 0.0 | 0.00 | 0.05 | 0.03 | 86 | 1011.2 |
| 20260507050050 | 11 | 355 | 0.0 | 0.0 | 0.00 | 0.05 | 0.03 | 86 | 1011.2 |
| 20260507044558 | 11 | 355 | 0.0 | 0.0 | 0.00 | 0.05 | 0.03 | 86 | 1011.1 |
| 20260507043048 | 11 | 355 | 0.0 | 3.2 | 0.00 | 0.05 | 0.03 | 85 | 1010.9 |
| 20260507041546 | 11 | 355 | 0.0 | 4.8 | 0.00 | 0.05 | 0.03 | 84 | 1010.8 |
| 20260507040044 | 12 | 123 | 0.0 | 3.2 | 0.00 | 0.05 | 0.03 | 82 | 1010.7 |
| 20260507034543 | 12 | 132 | 1.6 | 6.4 | 0.00 | 0.08 | 0.03 | 80 | 1010.5 |
| 20260507033048 | 12 | 229 | 0.0 | 8.0 | 0.00 | 0.08 | 0.03 | 79 | 1010.7 |
| 20260507031551 | 12 | 238 | 1.6 | 8.0 | 0.00 | 0.08 | 0.03 | 79 | 1010.8 |
| 20260507030042 | 12 | 251 | 1.6 | 6.4 | 0.00 | 0.08 | 0.03 | 78 | 1010.7 |
| 20260507024541 | 12 | 198 | 1.6 | 8.0 | 0.00 | 0.20 | 0.03 | 78 | 1010.7 |
| 20260507023034 | 12 | 285 | 3.2 | 11.3 | 0.00 | 0.20 | 0.03 | 77 | 1010.7 |
| 20260507021536 | 13 | 250 | 1.6 | 14.5 | 0.00 | 0.20 | 0.03 | 75 | 1010.5 |
| 20260507020032 | 13 | 265 | 3.2 | 12.9 | 0.00 | 0.20 | 0.03 | 75 | 1010.4 |
| 20260507014541 | 13 | 268 | 1.6 | 11.3 | 0.00 | 0.20 | 0.03 | 74 | 1010.3 |
| 20260507013037 | 13 | 288 | 1.6 | 8.0 | 0.00 | 0.20 | 0.03 | 75 | 1010.2 |
| 20260507011536 | 12 | 229 | 0.0 | 3.2 | 0.00 | 0.20 | 0.03 | 77 | 1010.2 |
| 20260507010038 | 12 | 242 | 0.0 | 3.2 | 0.00 | 0.20 | 0.03 | 80 | 1010.2 |
| 20260507004528 | 13 | 243 | 0.0 | 1.6 | 0.00 | 0.20 | 0.03 | 74 | 1010.2 |
| 20260507003027 | 13 | 239 | 1.6 | 4.8 | 0.00 | 0.20 | 0.03 | 73 | 1010.1 |
| 20260507001528 | 12 | 237 | 3.2 | 11.3 | 0.00 | 0.20 | 0.03 | 77 | 1010.2 |
| 20260507000024 | 13 | 28 | 0.0 | 3.2 | 0.00 | 0.20 | 0.03 | 76 | 1010.3 |
| 20260506234523 | 13 | 233 | 0.0 | 16.1 | 0.00 | 0.20 | 0.03 | 74 | 1010.4 |
| 20260506233021 | 13 | 157 | 6.4 | 12.9 | 0.00 | 0.20 | 0.03 | 75 | 1010.6 |
| 20260506231520 | 13 | 187 | 3.2 | 8.0 | 0.03 | 0.20 | 0.03 | 74 | 1010.6 |
| 20260506230017 | 13 | 220 | 6.4 | 12.9 | 0.03 | 0.20 | 0.03 | 77 | 1010.7 |
| 20260506224517 | 13 | 145 | 0.0 | 8.0 | 0.03 | 0.20 | 0.03 | 78 | 1010.8 |
| 20260506223018 | 13 | 138 | 1.6 | 9.7 | 0.03 | 0.20 | 0.03 | 76 | 1010.9 |
| 20260506221510 | 13 | 241 | 3.2 | 16.1 | 0.00 | 0.18 | 0.00 | 74 | 1010.7 |
| 20260506220007 | 14 | 223 | 6.4 | 17.7 | 0.00 | 0.18 | 0.00 | 73 | 1010.9 |
| 20260506214507 | 14 | 223 | 8.0 | 24.1 | 0.00 | 0.18 | 0.18 | 73 | 1010.9 |
| 20260506213006 | 14 | 232 | 8.0 | 16.1 | 0.00 | 0.18 | 0.18 | 73 | 1011.0 |
| 20260506211504 | 14 | 224 | 8.0 | 16.1 | 0.00 | 0.18 | 0.18 | 72 | 1011.0 |
| 20260506210009 | 13 | 215 | 3.2 | 11.3 | 0.00 | 0.18 | 0.18 | 73 | 1010.9 |
| 20260506204503 | 13 | 167 | 3.2 | 14.5 | 0.00 | 0.18 | 0.18 | 74 | 1011.1 |
| 20260506203005 | 13 | 191 | 6.4 | 14.5 | 0.00 | 0.18 | 0.18 | 74 | 1011.1 |
| 20260506201501 | 14 | 242 | 6.4 | 12.9 | 0.00 | 0.18 | 0.18 | 74 | 1011.4 |
| 20260506200001 | 14 | 178 | 4.8 | 14.5 | 0.00 | 0.18 | 0.18 | 74 | 1011.4 |
| 20260506194501 | 13 | 223 | 8.0 | 12.9 | 0.00 | 0.18 | 0.18 | 75 | 1011.2 |
| 20260506193106 | 13 | 197 | 6.4 | 9.7 | 0.00 | 0.18 | 0.18 | 76 | 1011.1 |
| 20260506191559 | 14 | 222 | 1.6 | 6.4 | 0.00 | 0.18 | 0.18 | 76 | 1011.0 |
| 20260506191502 | 14 | 223 | 3.2 | 6.4 | 0.00 | 0.18 | 0.18 | 76 | 1010.9 |
| 20260506190159 | 13 | 192 | 3.2 | 6.4 | 0.00 | 0.18 | 0.18 | 77 | 1010.8 |
| 20260506184558 | 14 | 171 | 0.0 | 8.0 | 0.00 | 0.18 | 0.18 | 75 | 1010.7 |
| 20260506183059 | 14 | 238 | 6.4 | 16.1 | 0.00 | 0.18 | 0.18 | 75 | 1010.8 |
| 20260506181558 | 15 | 235 | 1.6 | 6.4 | 0.00 | 0.18 | 0.18 | 76 | 1010.7 |
| 20260506180056 | 15 | 250 | 1.6 | 6.4 | 0.00 | 0.18 | 0.18 | 75 | 1010.6 |
| 20260506174556 | 15 | 355 | 0.0 | 6.4 | 0.00 | 0.18 | 0.18 | 74 | 1010.4 |
| 20260506173124 | 15 | 210 | 3.2 | 6.4 | 0.00 | 0.18 | 0.18 | 73 | 1010.4 |
| 20260506171601 | 15 | 295 | 4.8 | 20.9 | 0.00 | 0.18 | 0.18 | 72 | 1010.1 |
| 20260506170052 | 15 | 275 | 4.8 | 14.5 | 0.00 | 0.18 | 0.18 | 71 | 1010.1 |
| 20260506164559 | 16 | 235 | 1.6 | 6.4 | 0.00 | 0.18 | 0.18 | 69 | 1010.0 |
| 20260506163103 | 16 | 194 | 6.4 | 14.5 | 0.00 | 0.18 | 0.18 | 69 | 1010.0 |
| 20260506161617 | 16 | 223 | 3.2 | 14.5 | 0.00 | 0.18 | 0.18 | 70 | 1010.1 |
| 20260506160051 | 16 | 196 | 12.9 | 27.4 | 0.00 | 0.18 | 0.18 | 68 | 1010.1 |
| 20260506154552 | 16 | 163 | 11.3 | 22.5 | 0.00 | 0.18 | 0.18 | 68 | 1009.9 |
| 20260506153056 | 16 | 223 | 8.0 | 25.7 | 0.00 | 0.18 | 0.18 | 68 | 1010.2 |
| 20260506151549 | 16 | 209 | 14.5 | 30.6 | 0.00 | 0.18 | 0.18 | 67 | 1010.3 |
| 20260506150046 | 16 | 221 | 12.9 | 20.9 | 0.00 | 0.18 | 0.18 | 69 | 1010.2 |
| 20260506144545 | 17 | 234 | 16.1 | 30.6 | 0.00 | 0.18 | 0.18 | 69 | 1010.3 |
| 20260506143046 | 17 | 212 | 9.7 | 27.4 | 0.00 | 0.18 | 0.18 | 68 | 1010.2 |
| 20260506141547 | 17 | 190 | 12.9 | 24.1 | 0.00 | 0.18 | 0.18 | 68 | 1010.1 |
| 20260506140043 | 17 | 233 | 8.0 | 20.9 | 0.00 | 0.18 | 0.18 | 69 | 1010.0 |
| 20260506134541 | 17 | 162 | 11.3 | 24.1 | 0.00 | 0.18 | 0.18 | 66 | 1010.0 |
| 20260506133041 | 18 | 244 | 4.8 | 14.5 | 0.00 | 0.18 | 0.18 | 66 | 1010.2 |
| 20260506131548 | 18 | 209 | 1.6 | 19.3 | 0.00 | 0.18 | 0.18 | 66 | 1010.3 |
| 20260506130054 | 18 | 242 | 11.3 | 30.6 | 0.00 | 0.18 | 0.18 | 64 | 1010.4 |
| 20260506124537 | 18 | 214 | 12.9 | 30.6 | 0.00 | 0.18 | 0.18 | 66 | 1010.5 |
| 20260506123040 | 18 | 150 | 8.0 | 27.4 | 0.00 | 0.18 | 0.18 | 67 | 1010.5 |
| 20260506121535 | 18 | 171 | 14.5 | 22.5 | 0.00 | 0.18 | 0.18 | 65 | 1010.5 |
| 20260506120036 | 18 | 144 | 6.4 | 24.1 | 0.00 | 0.18 | 0.18 | 67 | 1010.5 |
| 20260506114535 | 18 | 228 | 8.0 | 14.5 | 0.00 | 0.18 | 0.18 | 64 | 1010.6 |
| 20260506113033 | 18 | 175 | 11.3 | 25.7 | 0.00 | 0.18 | 0.18 | 67 | 1010.8 |
| 20260506111528 | 17 | 205 | 11.3 | 24.1 | 0.03 | 0.18 | 0.18 | 64 | 1010.8 |
| 20260506110027 | 17 | 243 | 8.0 | 17.7 | 0.03 | 0.18 | 0.18 | 65 | 1010.9 |
| 20260506104521 | 16 | 200 | 11.3 | 19.3 | 0.03 | 0.18 | 0.18 | 67 | 1011.2 |